Terminal Aerodrome Forecast
Issued by NWS

Home | Current Version | Previous Version | Graphics & Text | Print | Product List | Glossary On
Versions: 1 2 3 4 5 6 7 8 9 10 11 12 13 14 15
450
FTUS42 KMHX 251013 AAA
TAFPGV
TAF AMD
KPGV 251013Z 2510/2606 00000KT 1SM BR BKN007
      TEMPO 2510/2512 1/2SM FG OVC004
     FM251230 VRB04KT 5SM BR SCT250
     FM251400 19006KT P6SM SCT250
     FM252100 22015G25KT P6SM BKN110
     FM260300 31010G19KT P6SM SCT200
      AMD LTD TO CLD VIS AND WIND=

USA.gov is the U.S. government's official web portal to all federal, state and local government web resources and services.